CheckWX is a tool to help pilots better visualize weather data.  It is not intended as a substitute for an official pre-flight weather briefing.

22:57:22 UTC

LEMG TAF
Málaga Airport
Málaga, Spain
TAF LEMG 241700Z 2418/2518 VRB03KT CAVOK TX23/2512Z TN11/2506Z BECMG 2420/2422 29008KT PROB30 TEMPO 2512/2518 32015G25KT

Feb-24@
18:00 UTC

Feb-24 @ 18:00 UTC

Feb-24@
20:00 UTC

Feb-24 @ 20:00 UTC

TAF LEMG 241700Z 2418/2518 VRB03KT CAVOK TX23/2512Z TN11/2506Z

Expired

Wind
  • Variable at 3 KTS
Cloud Levels
  • No significant clouds

Feb-24@
20:00 UTC

Feb-24 @ 20:00 UTC

Feb-25@
18:00 UTC

Feb-25 @ 18:00 UTC

BECMG 2420/2422 29008KT

Becoming

Becoming Conditions expected by Mon, Feb 24, 2020 @ 22:00 UTC

Wind
  • 290° at 8 KTS
Cloud Levels
  • No significant clouds

Feb-25@
12:00 UTC

Feb-25 @ 12:00 UTC

Feb-25@
18:00 UTC

Feb-25 @ 18:00 UTC

PROB30 TEMPO 2512/2518 32015G25KT

Temporary - 30% Likelihood

Temporary - 30% Likelihood during this time.

Wind
  • 320° at 15 KTS
  • {Gusting to 25 KTS